sensor_id;sensor_type;location;lat;lon;timestamp;temperature;humidity
56771;DHT22;42641;59.794;17.616;2023-03-01T00:01:22;1.70;99.90
56771;DHT22;42641;59.794;17.616;2023-03-01T00:03:50;1.70;99.90
56771;DHT22;42641;59.794;17.616;2023-03-01T00:06:17;1.80;99.90
56771;DHT22;42641;59.794;17.616;2023-03-01T00:08:43;1.80;99.90
56771;DHT22;42641;59.794;17.616;2023-03-01T00:11:19;1.80;99.90
56771;DHT22;42641;59.794;17.616;2023-03-01T00:13:46;1.80;99.90
56771;DHT22;42641;59.794;17.616;2023-03-01T00:16:19;1.80;99.90
56771;DHT22;42641;59.794;17.616;2023-03-01T00:18:46;1.80;99.90
56771;DHT22;42641;59.794;17.616;2023-03-01T00:21:13;1.80;99.90
56771;DHT22;42641;59.794;17.616;2023-03-01T00:23:40;1.70;99.90
56771;DHT22;42641;59.794;17.616;2023-03-01T00:26:09;1.70;99.90
56771;DHT22;42641;59.794;17.616;2023-03-01T00:28:39;1.60;99.90
56771;DHT22;42641;59.794;17.616;2023-03-01T00:31:11;1.60;99.90
56771;DHT22;42641;59.794;17.616;2023-03-01T00:33:38;1.60;99.90
56771;DHT22;42641;59.794;17.616;2023-03-01T00:36:05;1.60;99.90
56771;DHT22;42641;59.794;17.616;2023-03-01T00:38:35;1.60;99.90
56771;DHT22;42641;59.794;17.616;2023-03-01T00:41:13;1.60;99.90
56771;DHT22;42641;59.794;17.616;2023-03-01T00:43:40;1.50;99.90
56771;DHT22;42641;59.794;17.616;2023-03-01T00:46:14;1.50;99.90
56771;DHT22;42641;59.794;17.616;2023-03-01T00:48:41;1.50;99.90
56771;DHT22;42641;59.794;17.616;2023-03-01T00:51:13;1.60;99.90
56771;DHT22;42641;59.794;17.616;2023-03-01T00:53:39;1.60;99.90
56771;DHT22;42641;59.794;17.616;2023-03-01T00:56:07;1.60;99.90
56771;DHT22;42641;59.794;17.616;2023-03-01T00:58:34;1.70;99.90
56771;DHT22;42641;59.794;17.616;2023-03-01T01:01:10;1.70;99.90
56771;DHT22;42641;59.794;17.616;2023-03-01T01:03:48;1.70;99.90
56771;DHT22;42641;59.794;17.616;2023-03-01T01:06:20;1.80;99.90
56771;DHT22;42641;59.794;17.616;2023-03-01T01:08:47;1.90;99.90
56771;DHT22;42641;59.794;17.616;2023-03-01T01:11:14;1.90;99.90
56771;DHT22;42641;59.794;17.616;2023-03-01T01:13:41;1.80;99.90
56771;DHT22;42641;59.794;17.616;2023-03-01T01:16:08;1.80;99.90
56771;DHT22;42641;59.794;17.616;2023-03-01T01:18:35;1.80;99.90
56771;DHT22;42641;59.794;17.616;2023-03-01T01:21:10;1.80;99.90
56771;DHT22;42641;59.794;17.616;2023-03-01T01:23:38;1.80;99.90
56771;DHT22;42641;59.794;17.616;2023-03-01T01:26:21;1.80;99.90
56771;DHT22;42641;59.794;17.616;2023-03-01T01:28:50;1.80;99.90
56771;DHT22;42641;59.794;17.616;2023-03-01T01:31:17;1.80;99.90
56771;DHT22;42641;59.794;17.616;2023-03-01T01:33:44;1.80;99.90
56771;DHT22;42641;59.794;17.616;2023-03-01T01:36:11;1.70;99.90
56771;DHT22;42641;59.794;17.616;2023-03-01T01:38:38;1.70;99.90
56771;DHT22;42641;59.794;17.616;2023-03-01T01:41:06;1.70;99.90
56771;DHT22;42641;59.794;17.616;2023-03-01T01:43:35;1.60;99.90
56771;DHT22;42641;59.794;17.616;2023-03-01T01:46:35;1.60;99.90
56771;DHT22;42641;59.794;17.616;2023-03-01T01:51:55;1.50;99.90
56771;DHT22;42641;59.794;17.616;2023-03-01T01:54:49;1.50;99.90
56771;DHT22;42641;59.794;17.616;2023-03-01T01:57:19;1.50;99.90
56771;DHT22;42641;59.794;17.616;2023-03-01T01:59:51;1.50;99.90
56771;DHT22;42641;59.794;17.616;2023-03-01T02:02:19;1.40;99.90
56771;DHT22;42641;59.794;17.616;2023-03-01T02:04:47;1.30;99.90
56771;DHT22;42641;59.794;17.616;2023-03-01T02:07:18;1.20;99.90
56771;DHT22;42641;59.794;17.616;2023-03-01T02:09:47;1.20;99.90
56771;DHT22;42641;59.794;17.616;2023-03-01T02:12:16;1.20;99.90
56771;DHT22;42641;59.794;17.616;2023-03-01T02:14:44;1.20;99.90
56771;DHT22;42641;59.794;17.616;2023-03-01T02:17:12;1.20;99.90
56771;DHT22;42641;59.794;17.616;2023-03-01T02:22:31;1.10;99.90
56771;DHT22;42641;59.794;17.616;2023-03-01T02:30:27;1.10;99.90
56771;DHT22;42641;59.794;17.616;2023-03-01T02:32:56;1.10;99.90
56771;DHT22;42641;59.794;17.616;2023-03-01T02:35:31;1.10;99.90
56771;DHT22;42641;59.794;17.616;2023-03-01T02:38:00;1.10;99.90
56771;DHT22;42641;59.794;17.616;2023-03-01T02:40:29;1.10;99.90
56771;DHT22;42641;59.794;17.616;2023-03-01T02:42:58;1.10;99.90
56771;DHT22;42641;59.794;17.616;2023-03-01T02:45:27;1.10;99.90
56771;DHT22;42641;59.794;17.616;2023-03-01T02:47:54;1.00;99.90
56771;DHT22;42641;59.794;17.616;2023-03-01T02:55:32;1.00;99.90
56771;DHT22;42641;59.794;17.616;2023-03-01T02:58:02;1.00;99.90
56771;DHT22;42641;59.794;17.616;2023-03-01T03:00:38;1.00;99.90
56771;DHT22;42641;59.794;17.616;2023-03-01T03:03:07;0.90;99.90
56771;DHT22;42641;59.794;17.616;2023-03-01T03:05:34;0.90;99.90
56771;DHT22;42641;59.794;17.616;2023-03-01T03:08:02;0.80;99.90
56771;DHT22;42641;59.794;17.616;2023-03-01T03:10:35;0.80;99.90
56771;DHT22;42641;59.794;17.616;2023-03-01T03:13:05;0.80;99.90
56771;DHT22;42641;59.794;17.616;2023-03-01T03:15:33;0.80;99.90
56771;DHT22;42641;59.794;17.616;2023-03-01T03:18:05;0.80;99.90
56771;DHT22;42641;59.794;17.616;2023-03-01T03:20:32;0.80;99.90
56771;DHT22;42641;59.794;17.616;2023-03-01T03:22:59;0.80;99.90
56771;DHT22;42641;59.794;17.616;2023-03-01T03:25:27;0.70;99.90
56771;DHT22;42641;59.794;17.616;2023-03-01T03:27:54;0.70;99.90
56771;DHT22;42641;59.794;17.616;2023-03-01T03:30:25;0.70;99.90
56771;DHT22;42641;59.794;17.616;2023-03-01T03:32:51;0.70;99.90
56771;DHT22;42641;59.794;17.616;2023-03-01T03:35:28;0.70;99.90
56771;DHT22;42641;59.794;17.616;2023-03-01T03:38:04;0.70;99.90
56771;DHT22;42641;59.794;17.616;2023-03-01T03:40:46;0.70;99.90
56771;DHT22;42641;59.794;17.616;2023-03-01T03:43:15;0.70;99.90
56771;DHT22;42641;59.794;17.616;2023-03-01T03:45:44;0.70;99.90
56771;DHT22;42641;59.794;17.616;2023-03-01T03:48:11;0.70;99.90
56771;DHT22;42641;59.794;17.616;2023-03-01T03:50:39;0.60;99.90
56771;DHT22;42641;59.794;17.616;2023-03-01T03:53:12;0.60;99.90
56771;DHT22;42641;59.794;17.616;2023-03-01T03:55:39;0.60;99.90
56771;DHT22;42641;59.794;17.616;2023-03-01T03:58:07;0.70;99.90
56771;DHT22;42641;59.794;17.616;2023-03-01T04:00:36;0.70;99.90
56771;DHT22;42641;59.794;17.616;2023-03-01T04:03:03;0.70;99.90
56771;DHT22;42641;59.794;17.616;2023-03-01T04:05:30;0.70;99.90
56771;DHT22;42641;59.794;17.616;2023-03-01T04:07:57;0.70;99.90
56771;DHT22;42641;59.794;17.616;2023-03-01T04:10:38;0.70;99.90
56771;DHT22;42641;59.794;17.616;2023-03-01T04:13:06;0.70;99.90
56771;DHT22;42641;59.794;17.616;2023-03-01T04:15:33;0.60;99.90
56771;DHT22;42641;59.794;17.616;2023-03-01T04:18:00;0.60;99.90
56771;DHT22;42641;59.794;17.616;2023-03-01T04:20:30;0.60;99.90
56771;DHT22;42641;59.794;17.616;2023-03-01T04:23:17;0.60;99.90
56771;DHT22;42641;59.794;17.616;2023-03-01T04:25:49;0.60;99.90
56771;DHT22;42641;59.794;17.616;2023-03-01T04:30:47;0.60;99.90
56771;DHT22;42641;59.794;17.616;2023-03-01T04:33:13;0.50;99.90
56771;DHT22;42641;59.794;17.616;2023-03-01T04:35:40;0.50;99.90
56771;DHT22;42641;59.794;17.616;2023-03-01T04:38:07;0.50;99.90
56771;DHT22;42641;59.794;17.616;2023-03-01T04:40:34;0.40;99.90
56771;DHT22;42641;59.794;17.616;2023-03-01T04:43:01;0.40;99.90
56771;DHT22;42641;59.794;17.616;2023-03-01T04:45:28;0.30;99.90
56771;DHT22;42641;59.794;17.616;2023-03-01T04:47:54;0.30;99.90
56771;DHT22;42641;59.794;17.616;2023-03-01T04:50:21;0.30;99.90
56771;DHT22;42641;59.794;17.616;2023-03-01T04:52:49;0.40;99.90
56771;DHT22;42641;59.794;17.616;2023-03-01T04:55:15;0.40;99.90
56771;DHT22;42641;59.794;17.616;2023-03-01T04:57:42;0.40;99.90
56771;DHT22;42641;59.794;17.616;2023-03-01T05:00:11;0.40;99.90
56771;DHT22;42641;59.794;17.616;2023-03-01T05:05:31;0.40;99.90
56771;DHT22;42641;59.794;17.616;2023-03-01T05:08:00;0.40;99.90
56771;DHT22;42641;59.794;17.616;2023-03-01T05:10:29;0.40;99.90
56771;DHT22;42641;59.794;17.616;2023-03-01T05:12:57;0.40;99.90
56771;DHT22;42641;59.794;17.616;2023-03-01T05:15:24;0.50;99.90
56771;DHT22;42641;59.794;17.616;2023-03-01T05:17:55;0.50;99.90
56771;DHT22;42641;59.794;17.616;2023-03-01T05:20:25;0.60;99.90
56771;DHT22;42641;59.794;17.616;2023-03-01T05:22:53;0.60;99.90
56771;DHT22;42641;59.794;17.616;2023-03-01T05:25:21;0.60;99.90
56771;DHT22;42641;59.794;17.616;2023-03-01T05:27:48;0.60;99.90
56771;DHT22;42641;59.794;17.616;2023-03-01T05:30:14;0.60;99.90
56771;DHT22;42641;59.794;17.616;2023-03-01T05:32:43;0.60;99.90
56771;DHT22;42641;59.794;17.616;2023-03-01T05:35:11;0.60;99.90
56771;DHT22;42641;59.794;17.616;2023-03-01T05:37:45;0.60;99.90
56771;DHT22;42641;59.794;17.616;2023-03-01T05:40:15;0.60;99.90
56771;DHT22;42641;59.794;17.616;2023-03-01T05:42:51;0.60;99.90
56771;DHT22;42641;59.794;17.616;2023-03-01T05:45:18;0.50;99.90
56771;DHT22;42641;59.794;17.616;2023-03-01T05:47:45;0.50;99.90
56771;DHT22;42641;59.794;17.616;2023-03-01T05:50:23;0.50;99.90
56771;DHT22;42641;59.794;17.616;2023-03-01T05:55:29;0.50;99.90
56771;DHT22;42641;59.794;17.616;2023-03-01T05:57:58;0.50;99.90
56771;DHT22;42641;59.794;17.616;2023-03-01T06:00:24;0.50;99.90
56771;DHT22;42641;59.794;17.616;2023-03-01T06:02:54;0.50;99.90
56771;DHT22;42641;59.794;17.616;2023-03-01T06:05:25;0.50;99.90
56771;DHT22;42641;59.794;17.616;2023-03-01T06:07:52;0.60;99.90
56771;DHT22;42641;59.794;17.616;2023-03-01T06:10:30;0.50;99.90
56771;DHT22;42641;59.794;17.616;2023-03-01T06:12:57;0.40;99.90
56771;DHT22;42641;59.794;17.616;2023-03-01T06:15:24;0.20;99.90
56771;DHT22;42641;59.794;17.616;2023-03-01T06:17:51;0.20;99.90
56771;DHT22;42641;59.794;17.616;2023-03-01T06:20:22;0.20;99.90
56771;DHT22;42641;59.794;17.616;2023-03-01T06:22:49;0.20;99.90
56771;DHT22;42641;59.794;17.616;2023-03-01T06:25:19;0.30;99.90
56771;DHT22;42641;59.794;17.616;2023-03-01T06:27:46;0.30;99.90
56771;DHT22;42641;59.794;17.616;2023-03-01T06:32:41;0.40;99.90
56771;DHT22;42641;59.794;17.616;2023-03-01T06:35:11;0.30;99.90
56771;DHT22;42641;59.794;17.616;2023-03-01T06:37:39;0.30;99.90
56771;DHT22;42641;59.794;17.616;2023-03-01T06:40:06;0.30;99.90
56771;DHT22;42641;59.794;17.616;2023-03-01T06:42:39;0.40;99.90
56771;DHT22;42641;59.794;17.616;2023-03-01T06:45:07;0.40;99.90
56771;DHT22;42641;59.794;17.616;2023-03-01T06:47:33;0.50;99.90
56771;DHT22;42641;59.794;17.616;2023-03-01T06:50:01;0.50;99.90
56771;DHT22;42641;59.794;17.616;2023-03-01T06:52:27;0.60;99.90
56771;DHT22;42641;59.794;17.616;2023-03-01T06:54:54;0.60;99.90
56771;DHT22;42641;59.794;17.616;2023-03-01T06:57:21;0.60;99.90
56771;DHT22;42641;59.794;17.616;2023-03-01T06:59:47;0.70;99.90
56771;DHT22;42641;59.794;17.616;2023-03-01T07:02:14;0.80;99.90
56771;DHT22;42641;59.794;17.616;2023-03-01T07:04:42;0.80;99.90
56771;DHT22;42641;59.794;17.616;2023-03-01T07:07:08;0.80;99.90
56771;DHT22;42641;59.794;17.616;2023-03-01T07:09:35;0.90;99.90
56771;DHT22;42641;59.794;17.616;2023-03-01T07:12:02;0.90;99.90
56771;DHT22;42641;59.794;17.616;2023-03-01T07:14:28;1.00;99.90
56771;DHT22;42641;59.794;17.616;2023-03-01T07:16:55;1.00;99.90
56771;DHT22;42641;59.794;17.616;2023-03-01T07:19:21;1.00;99.90
56771;DHT22;42641;59.794;17.616;2023-03-01T07:21:48;1.10;99.90
56771;DHT22;42641;59.794;17.616;2023-03-01T07:24:15;1.20;99.90
56771;DHT22;42641;59.794;17.616;2023-03-01T07:26:41;1.30;99.90
56771;DHT22;42641;59.794;17.616;2023-03-01T07:29:09;1.40;99.90
56771;DHT22;42641;59.794;17.616;2023-03-01T07:31:36;1.40;99.90
56771;DHT22;42641;59.794;17.616;2023-03-01T07:34:03;1.60;99.90
56771;DHT22;42641;59.794;17.616;2023-03-01T07:36:29;1.70;99.90
56771;DHT22;42641;59.794;17.616;2023-03-01T07:38:55;1.70;99.90
56771;DHT22;42641;59.794;17.616;2023-03-01T07:41:22;1.90;99.90
56771;DHT22;42641;59.794;17.616;2023-03-01T07:43:49;2.10;99.90
56771;DHT22;42641;59.794;17.616;2023-03-01T07:46:15;2.20;99.90
56771;DHT22;42641;59.794;17.616;2023-03-01T07:48:41;2.30;99.90
56771;DHT22;42641;59.794;17.616;2023-03-01T07:51:09;2.30;99.90
56771;DHT22;42641;59.794;17.616;2023-03-01T07:53:35;2.40;99.90
56771;DHT22;42641;59.794;17.616;2023-03-01T07:56:07;2.40;99.90
56771;DHT22;42641;59.794;17.616;2023-03-01T07:58:35;2.50;99.90
56771;DHT22;42641;59.794;17.616;2023-03-01T08:01:04;2.70;99.90
56771;DHT22;42641;59.794;17.616;2023-03-01T08:03:32;2.80;99.90
56771;DHT22;42641;59.794;17.616;2023-03-01T08:06:03;2.90;99.90
56771;DHT22;42641;59.794;17.616;2023-03-01T08:08:30;3.10;99.90
56771;DHT22;42641;59.794;17.616;2023-03-01T08:10:58;3.20;99.90
56771;DHT22;42641;59.794;17.616;2023-03-01T08:13:25;3.40;99.90
56771;DHT22;42641;59.794;17.616;2023-03-01T08:15:52;3.50;99.90
56771;DHT22;42641;59.794;17.616;2023-03-01T08:18:20;3.70;99.90
56771;DHT22;42641;59.794;17.616;2023-03-01T08:20:47;3.80;99.90
56771;DHT22;42641;59.794;17.616;2023-03-01T08:23:13;3.90;99.90
56771;DHT22;42641;59.794;17.616;2023-03-01T08:25:39;4.10;99.90
56771;DHT22;42641;59.794;17.616;2023-03-01T08:28:06;4.20;99.90
56771;DHT22;42641;59.794;17.616;2023-03-01T08:30:33;4.30;99.90
56771;DHT22;42641;59.794;17.616;2023-03-01T08:33:00;4.40;99.90
56771;DHT22;42641;59.794;17.616;2023-03-01T08:35:27;4.40;99.90
56771;DHT22;42641;59.794;17.616;2023-03-01T08:37:53;4.50;99.90
56771;DHT22;42641;59.794;17.616;2023-03-01T08:40:19;4.60;99.90
56771;DHT22;42641;59.794;17.616;2023-03-01T08:42:46;4.70;99.90
56771;DHT22;42641;59.794;17.616;2023-03-01T08:45:12;4.80;99.90
56771;DHT22;42641;59.794;17.616;2023-03-01T08:47:40;4.90;99.90
56771;DHT22;42641;59.794;17.616;2023-03-01T08:50:06;5.00;99.90
56771;DHT22;42641;59.794;17.616;2023-03-01T08:52:33;5.10;99.90
56771;DHT22;42641;59.794;17.616;2023-03-01T08:54:59;5.20;99.90
56771;DHT22;42641;59.794;17.616;2023-03-01T08:57:27;5.20;99.90
56771;DHT22;42641;59.794;17.616;2023-03-01T08:59:54;5.30;99.90
56771;DHT22;42641;59.794;17.616;2023-03-01T09:02:22;5.40;99.90
56771;DHT22;42641;59.794;17.616;2023-03-01T09:04:48;5.50;99.90
56771;DHT22;42641;59.794;17.616;2023-03-01T09:07:15;5.60;99.90
56771;DHT22;42641;59.794;17.616;2023-03-01T09:09:41;5.70;99.90
56771;DHT22;42641;59.794;17.616;2023-03-01T09:12:07;5.80;99.90
56771;DHT22;42641;59.794;17.616;2023-03-01T09:14:34;5.80;99.90
56771;DHT22;42641;59.794;17.616;2023-03-01T09:17:00;6.00;99.90
56771;DHT22;42641;59.794;17.616;2023-03-01T09:19:29;6.00;99.90
56771;DHT22;42641;59.794;17.616;2023-03-01T09:21:55;6.10;99.90
56771;DHT22;42641;59.794;17.616;2023-03-01T09:24:23;6.20;99.90
56771;DHT22;42641;59.794;17.616;2023-03-01T09:26:53;6.30;99.90
56771;DHT22;42641;59.794;17.616;2023-03-01T09:29:20;6.40;99.90
56771;DHT22;42641;59.794;17.616;2023-03-01T09:31:47;6.40;99.90
56771;DHT22;42641;59.794;17.616;2023-03-01T09:34:13;6.60;99.90
56771;DHT22;42641;59.794;17.616;2023-03-01T09:36:45;6.70;99.90
56771;DHT22;42641;59.794;17.616;2023-03-01T09:39:11;6.70;99.90
56771;DHT22;42641;59.794;17.616;2023-03-01T09:41:45;6.80;99.90
56771;DHT22;42641;59.794;17.616;2023-03-01T09:44:31;6.90;99.90
56771;DHT22;42641;59.794;17.616;2023-03-01T09:46:59;7.10;99.90
56771;DHT22;42641;59.794;17.616;2023-03-01T09:49:34;7.10;99.90
56771;DHT22;42641;59.794;17.616;2023-03-01T09:54:55;7.20;99.90
56771;DHT22;42641;59.794;17.616;2023-03-01T10:02:51;7.50;99.90
56771;DHT22;42641;59.794;17.616;2023-03-01T10:08:14;7.50;99.90
56771;DHT22;42641;59.794;17.616;2023-03-01T10:10:47;7.60;99.90
56771;DHT22;42641;59.794;17.616;2023-03-01T10:13:21;7.60;99.90
56771;DHT22;42641;59.794;17.616;2023-03-01T10:16:03;7.70;99.90
56771;DHT22;42641;59.794;17.616;2023-03-01T10:18:33;7.80;99.90
56771;DHT22;42641;59.794;17.616;2023-03-01T10:21:17;7.80;99.90
56771;DHT22;42641;59.794;17.616;2023-03-01T10:23:45;7.80;99.90
56771;DHT22;42641;59.794;17.616;2023-03-01T10:26:17;7.90;99.90
56771;DHT22;42641;59.794;17.616;2023-03-01T10:29:07;7.90;99.90
56771;DHT22;42641;59.794;17.616;2023-03-01T10:34:15;8.30;99.90
56771;DHT22;42641;59.794;17.616;2023-03-01T10:36:44;8.40;99.90
56771;DHT22;42641;59.794;17.616;2023-03-01T10:39:14;8.50;99.90
56771;DHT22;42641;59.794;17.616;2023-03-01T10:42:07;8.50;99.90
56771;DHT22;42641;59.794;17.616;2023-03-01T10:44:47;8.50;99.90
56771;DHT22;42641;59.794;17.616;2023-03-01T10:47:18;8.60;99.90
56771;DHT22;42641;59.794;17.616;2023-03-01T10:50:00;8.70;99.90
56771;DHT22;42641;59.794;17.616;2023-03-01T10:52:37;8.80;99.90
56771;DHT22;42641;59.794;17.616;2023-03-01T10:55:26;8.80;99.90
56771;DHT22;42641;59.794;17.616;2023-03-01T11:00:51;9.10;99.90
56771;DHT22;42641;59.794;17.616;2023-03-01T11:03:24;9.20;99.90
56771;DHT22;42641;59.794;17.616;2023-03-01T11:05:55;9.30;99.90
56771;DHT22;42641;59.794;17.616;2023-03-01T11:08:35;9.40;99.90
56771;DHT22;42641;59.794;17.616;2023-03-01T11:11:22;9.30;99.90
56771;DHT22;42641;59.794;17.616;2023-03-01T11:13:55;9.30;99.90
56771;DHT22;42641;59.794;17.616;2023-03-01T11:16:25;9.40;99.90
56771;DHT22;42641;59.794;17.616;2023-03-01T11:24:13;9.60;99.90
56771;DHT22;42641;59.794;17.616;2023-03-01T11:26:42;9.80;99.90
56771;DHT22;42641;59.794;17.616;2023-03-01T11:29:37;10.00;99.90
56771;DHT22;42641;59.794;17.616;2023-03-01T11:32:09;10.50;99.90
56771;DHT22;42641;59.794;17.616;2023-03-01T11:34:43;11.00;99.90
56771;DHT22;42641;59.794;17.616;2023-03-01T11:39:58;11.80;99.90
56771;DHT22;42641;59.794;17.616;2023-03-01T11:42:48;12.30;98.90
56771;DHT22;42641;59.794;17.616;2023-03-01T11:45:16;12.50;97.60
56771;DHT22;42641;59.794;17.616;2023-03-01T11:50:46;13.00;96.30
56771;DHT22;42641;59.794;17.616;2023-03-01T11:53:26;13.40;95.60
56771;DHT22;42641;59.794;17.616;2023-03-01T12:04:52;13.90;92.90
56771;DHT22;42641;59.794;17.616;2023-03-01T12:07:45;14.00;92.50
56771;DHT22;42641;59.794;17.616;2023-03-01T12:12:58;14.50;92.00
56771;DHT22;42641;59.794;17.616;2023-03-01T12:18:24;13.40;91.60
56771;DHT22;42641;59.794;17.616;2023-03-01T12:26:24;12.80;91.60
56771;DHT22;42641;59.794;17.616;2023-03-01T12:29:00;12.80;92.40
56771;DHT22;42641;59.794;17.616;2023-03-01T12:42:36;12.90;91.50
56771;DHT22;42641;59.794;17.616;2023-03-01T12:45:30;13.00;91.60
56771;DHT22;42641;59.794;17.616;2023-03-01T12:50:44;13.00;91.10
56771;DHT22;42641;59.794;17.616;2023-03-01T12:53:26;12.80;91.80
56771;DHT22;42641;59.794;17.616;2023-03-01T12:55:56;12.60;91.40
56771;DHT22;42641;59.794;17.616;2023-03-01T13:05:00;12.50;91.50
56771;DHT22;42641;59.794;17.616;2023-03-01T13:09:55;13.00;91.80
56771;DHT22;42641;59.794;17.616;2023-03-01T13:12:52;13.10;91.00
56771;DHT22;42641;59.794;17.616;2023-03-01T13:18:02;13.30;90.20
56771;DHT22;42641;59.794;17.616;2023-03-01T13:26:15;13.20;90.30
56771;DHT22;42641;59.794;17.616;2023-03-01T13:34:03;12.00;91.30
56771;DHT22;42641;59.794;17.616;2023-03-01T13:39:04;11.90;92.30
56771;DHT22;42641;59.794;17.616;2023-03-01T13:46:44;11.50;92.30
56771;DHT22;42641;59.794;17.616;2023-03-01T13:49:22;11.30;93.00
56771;DHT22;42641;59.794;17.616;2023-03-01T13:51:50;11.10;93.00
56771;DHT22;42641;59.794;17.616;2023-03-01T13:54:29;11.10;93.20
56771;DHT22;42641;59.794;17.616;2023-03-01T13:56:59;11.10;93.60
56771;DHT22;42641;59.794;17.616;2023-03-01T13:59:26;11.10;93.50
56771;DHT22;42641;59.794;17.616;2023-03-01T14:01:54;11.00;93.60
56771;DHT22;42641;59.794;17.616;2023-03-01T14:04:30;11.00;93.50
56771;DHT22;42641;59.794;17.616;2023-03-01T14:07:10;10.90;93.70
56771;DHT22;42641;59.794;17.616;2023-03-01T14:09:43;10.60;94.40
56771;DHT22;42641;59.794;17.616;2023-03-01T14:18:22;10.40;94.60
56771;DHT22;42641;59.794;17.616;2023-03-01T14:20:42;10.30;94.70
56771;DHT22;42641;59.794;17.616;2023-03-01T14:23:14;10.30;94.90
56771;DHT22;42641;59.794;17.616;2023-03-01T14:26:08;10.20;95.00
56771;DHT22;42641;59.794;17.616;2023-03-01T14:28:36;10.20;95.70
56771;DHT22;42641;59.794;17.616;2023-03-01T14:33:55;10.10;95.60
56771;DHT22;42641;59.794;17.616;2023-03-01T14:36:28;10.00;95.40
56771;DHT22;42641;59.794;17.616;2023-03-01T14:38:55;10.00;95.70
56771;DHT22;42641;59.794;17.616;2023-03-01T14:41:24;9.90;95.70
56771;DHT22;42641;59.794;17.616;2023-03-01T14:49:24;10.00;96.00
56771;DHT22;42641;59.794;17.616;2023-03-01T14:52:07;10.00;95.60
56771;DHT22;42641;59.794;17.616;2023-03-01T14:54:41;10.00;95.90
56771;DHT22;42641;59.794;17.616;2023-03-01T14:59:43;10.00;96.10
56771;DHT22;42641;59.794;17.616;2023-03-01T15:02:17;9.90;95.90
56771;DHT22;42641;59.794;17.616;2023-03-01T15:04:54;10.00;95.90
56771;DHT22;42641;59.794;17.616;2023-03-01T15:07:30;10.00;96.10
56771;DHT22;42641;59.794;17.616;2023-03-01T15:10:01;9.90;96.00
56771;DHT22;42641;59.794;17.616;2023-03-01T15:14:55;9.80;96.30
56771;DHT22;42641;59.794;17.616;2023-03-01T15:17:36;9.70;96.40
56771;DHT22;42641;59.794;17.616;2023-03-01T15:20:16;9.60;96.30
56771;DHT22;42641;59.794;17.616;2023-03-01T15:22:44;9.60;96.70
56771;DHT22;42641;59.794;17.616;2023-03-01T15:25:33;9.50;96.70
56771;DHT22;42641;59.794;17.616;2023-03-01T15:28:01;9.50;96.80
56771;DHT22;42641;59.794;17.616;2023-03-01T15:30:33;9.40;97.40
56771;DHT22;42641;59.794;17.616;2023-03-01T15:35:58;9.30;97.50
56771;DHT22;42641;59.794;17.616;2023-03-01T15:38:36;9.30;97.30
56771;DHT22;42641;59.794;17.616;2023-03-01T15:44:03;9.20;97.50
56771;DHT22;42641;59.794;17.616;2023-03-01T15:46:40;9.10;97.60
56771;DHT22;42641;59.794;17.616;2023-03-01T15:49:42;9.10;97.80
56771;DHT22;42641;59.794;17.616;2023-03-01T15:52:29;9.10;97.80
56771;DHT22;42641;59.794;17.616;2023-03-01T15:54:59;9.10;97.90
56771;DHT22;42641;59.794;17.616;2023-03-01T15:57:27;9.10;98.10
56771;DHT22;42641;59.794;17.616;2023-03-01T15:59:53;9.00;98.10
56771;DHT22;42641;59.794;17.616;2023-03-01T16:02:20;9.00;98.20
56771;DHT22;42641;59.794;17.616;2023-03-01T16:04:47;9.00;98.30
56771;DHT22;42641;59.794;17.616;2023-03-01T16:07:17;9.00;98.10
56771;DHT22;42641;59.794;17.616;2023-03-01T16:09:43;8.90;98.20
56771;DHT22;42641;59.794;17.616;2023-03-01T16:12:14;8.90;98.50
56771;DHT22;42641;59.794;17.616;2023-03-01T16:14:42;8.90;98.50
56771;DHT22;42641;59.794;17.616;2023-03-01T16:17:08;8.80;98.50
56771;DHT22;42641;59.794;17.616;2023-03-01T16:19:37;8.80;98.80
56771;DHT22;42641;59.794;17.616;2023-03-01T16:22:04;8.70;99.10
56771;DHT22;42641;59.794;17.616;2023-03-01T16:24:30;8.60;99.10
56771;DHT22;42641;59.794;17.616;2023-03-01T16:26:57;8.60;99.30
56771;DHT22;42641;59.794;17.616;2023-03-01T16:29:23;8.60;99.00
56771;DHT22;42641;59.794;17.616;2023-03-01T16:31:50;8.60;99.10
56771;DHT22;42641;59.794;17.616;2023-03-01T16:34:16;8.60;99.20
56771;DHT22;42641;59.794;17.616;2023-03-01T16:36:43;8.50;99.30
56771;DHT22;42641;59.794;17.616;2023-03-01T16:39:09;8.50;99.50
56771;DHT22;42641;59.794;17.616;2023-03-01T16:41:35;8.50;99.70
56771;DHT22;42641;59.794;17.616;2023-03-01T16:44:02;8.40;99.60
56771;DHT22;42641;59.794;17.616;2023-03-01T16:46:29;8.40;99.50
56771;DHT22;42641;59.794;17.616;2023-03-01T16:48:56;8.40;99.50
56771;DHT22;42641;59.794;17.616;2023-03-01T16:51:23;8.40;99.50
56771;DHT22;42641;59.794;17.616;2023-03-01T16:53:50;8.40;99.70
56771;DHT22;42641;59.794;17.616;2023-03-01T16:56:18;8.40;99.90
56771;DHT22;42641;59.794;17.616;2023-03-01T16:58:45;8.40;99.70
56771;DHT22;42641;59.794;17.616;2023-03-01T17:01:17;8.30;99.90
56771;DHT22;42641;59.794;17.616;2023-03-01T17:03:45;8.30;99.90
56771;DHT22;42641;59.794;17.616;2023-03-01T17:06:14;8.20;99.90
56771;DHT22;42641;59.794;17.616;2023-03-01T17:08:41;8.20;99.90
56771;DHT22;42641;59.794;17.616;2023-03-01T17:11:10;8.10;99.90
56771;DHT22;42641;59.794;17.616;2023-03-01T17:13:37;8.10;99.90
56771;DHT22;42641;59.794;17.616;2023-03-01T17:16:09;8.10;99.90
56771;DHT22;42641;59.794;17.616;2023-03-01T17:18:36;8.00;99.90
56771;DHT22;42641;59.794;17.616;2023-03-01T17:21:04;8.00;99.90
56771;DHT22;42641;59.794;17.616;2023-03-01T17:23:32;8.00;99.90
56771;DHT22;42641;59.794;17.616;2023-03-01T17:26:00;7.90;99.90
56771;DHT22;42641;59.794;17.616;2023-03-01T17:28:28;7.90;99.90
56771;DHT22;42641;59.794;17.616;2023-03-01T17:30:55;7.90;99.90
56771;DHT22;42641;59.794;17.616;2023-03-01T17:33:22;7.90;99.90
56771;DHT22;42641;59.794;17.616;2023-03-01T17:35:49;7.90;99.90
56771;DHT22;42641;59.794;17.616;2023-03-01T17:38:16;7.90;99.90
56771;DHT22;42641;59.794;17.616;2023-03-01T17:40:44;7.90;99.90
56771;DHT22;42641;59.794;17.616;2023-03-01T17:43:15;7.90;99.90
56771;DHT22;42641;59.794;17.616;2023-03-01T17:45:43;7.90;99.90
56771;DHT22;42641;59.794;17.616;2023-03-01T17:48:14;7.80;99.90
56771;DHT22;42641;59.794;17.616;2023-03-01T17:50:41;7.80;99.90
56771;DHT22;42641;59.794;17.616;2023-03-01T17:53:08;7.80;99.90
56771;DHT22;42641;59.794;17.616;2023-03-01T17:55:36;7.80;99.90
56771;DHT22;42641;59.794;17.616;2023-03-01T17:58:03;7.80;99.90
56771;DHT22;42641;59.794;17.616;2023-03-01T18:00:30;7.80;99.90
56771;DHT22;42641;59.794;17.616;2023-03-01T18:02:56;7.80;99.90
56771;DHT22;42641;59.794;17.616;2023-03-01T18:05:23;7.80;99.90
56771;DHT22;42641;59.794;17.616;2023-03-01T18:07:51;7.70;99.90
56771;DHT22;42641;59.794;17.616;2023-03-01T18:10:18;7.80;99.90
56771;DHT22;42641;59.794;17.616;2023-03-01T18:12:45;7.80;99.90